Terminal Aerodrome Forecast
Issued by NWS Charleston, WV

Current Version | Previous Version | Text Only | Print | Product List | Glossary Off
Versions: 1 2 3 4 5 6 7 8 9 10 11 12 13 14 15 16 17 18 19 20 21 22 23 24

000
FTUS41 KRLX 220544
TAFBKW
TAF
KBKW 220544Z 2206/2306 34009KT P6SM -RA BKN025
     FM220700 24006KT P6SM BKN035
      TEMPO 2207/2209 BKN025
     FM220900 30006KT P6SM BKN080
     FM221200 32006KT P6SM BKN025
     FM221500 33008G15KT P6SM BKN025
     FM221700 33007KT P6SM SCT025
     FM230300 36003KT P6SM FEW025=

USA.gov is the U.S. government's official web portal to all federal, state and local government web resources and services.